Terminal Aerodrome Forecast
Issued by NWS Louisville, KY

Home | Current Version | Previous Version | Text Only | Print | Product List | Glossary On
Versions: 1 2 3 4 5 6 7 8 9 10 11 12
382
FTUS43 KLMK 270528
TAFSDF
TAF
KSDF 270528Z 2706/2812 VRB03KT P6SM VCTS SCT060CB BKN130
     FM270700 VRB03KT P6SM VCSH SCT060 BKN120
     FM270900 35006KT P6SM SCT060=

USA.gov is the U.S. government's official web portal to all federal, state and local government web resources and services.